sensor_id;sensor_type;location;lat;lon;timestamp;P1;durP1;ratioP1;P2;durP2;ratioP2
66721;SDS011;53633;49.932;10.884;2023-08-12T00:02:21;6.57;;;3.58;;
66721;SDS011;53633;49.932;10.884;2023-08-12T00:04:48;7.50;;;3.60;;
66721;SDS011;53633;49.932;10.884;2023-08-12T00:07:15;8.30;;;3.73;;
66721;SDS011;53633;49.932;10.884;2023-08-12T00:09:41;8.68;;;3.83;;
66721;SDS011;53633;49.932;10.884;2023-08-12T00:12:09;8.77;;;3.05;;
66721;SDS011;53633;49.932;10.884;2023-08-12T00:14:36;6.63;;;3.45;;
66721;SDS011;53633;49.932;10.884;2023-08-12T00:17:03;8.27;;;3.95;;
66721;SDS011;53633;49.932;10.884;2023-08-12T00:19:30;7.63;;;3.67;;
66721;SDS011;53633;49.932;10.884;2023-08-12T00:21:56;7.28;;;3.80;;
66721;SDS011;53633;49.932;10.884;2023-08-12T00:24:23;8.27;;;4.20;;
66721;SDS011;53633;49.932;10.884;2023-08-12T00:26:50;7.28;;;4.15;;
66721;SDS011;53633;49.932;10.884;2023-08-12T00:29:18;8.93;;;4.68;;
66721;SDS011;53633;49.932;10.884;2023-08-12T00:31:45;11.33;;;4.30;;
66721;SDS011;53633;49.932;10.884;2023-08-12T00:34:11;8.18;;;4.20;;
66721;SDS011;53633;49.932;10.884;2023-08-12T00:36:38;8.52;;;4.50;;
66721;SDS011;53633;49.932;10.884;2023-08-12T00:39:05;8.75;;;4.07;;
66721;SDS011;53633;49.932;10.884;2023-08-12T00:41:32;7.35;;;4.28;;
66721;SDS011;53633;49.932;10.884;2023-08-12T00:43:58;7.47;;;4.13;;
66721;SDS011;53633;49.932;10.884;2023-08-12T00:46:26;8.75;;;4.30;;
66721;SDS011;53633;49.932;10.884;2023-08-12T00:48:53;7.10;;;4.00;;
66721;SDS011;53633;49.932;10.884;2023-08-12T00:51:20;9.65;;;4.45;;
66721;SDS011;53633;49.932;10.884;2023-08-12T00:53:47;6.70;;;3.85;;
66721;SDS011;53633;49.932;10.884;2023-08-12T00:56:16;6.63;;;4.27;;
66721;SDS011;53633;49.932;10.884;2023-08-12T00:58:43;7.78;;;4.78;;
66721;SDS011;53633;49.932;10.884;2023-08-12T01:01:11;8.55;;;4.05;;
66721;SDS011;53633;49.932;10.884;2023-08-12T01:03:40;7.65;;;4.22;;
66721;SDS011;53633;49.932;10.884;2023-08-12T01:06:07;8.35;;;4.57;;
66721;SDS011;53633;49.932;10.884;2023-08-12T01:08:34;9.73;;;4.60;;
66721;SDS011;53633;49.932;10.884;2023-08-12T01:11:02;8.40;;;4.63;;
66721;SDS011;53633;49.932;10.884;2023-08-12T01:13:37;8.07;;;4.28;;
66721;SDS011;53633;49.932;10.884;2023-08-12T01:16:12;7.78;;;4.47;;
66721;SDS011;53633;49.932;10.884;2023-08-12T01:18:42;9.82;;;4.28;;
66721;SDS011;53633;49.932;10.884;2023-08-12T01:21:10;11.57;;;4.43;;
66721;SDS011;53633;49.932;10.884;2023-08-12T01:23:43;7.82;;;4.32;;
66721;SDS011;53633;49.932;10.884;2023-08-12T01:26:11;8.85;;;4.25;;
66721;SDS011;53633;49.932;10.884;2023-08-12T01:28:37;8.82;;;4.00;;
66721;SDS011;53633;49.932;10.884;2023-08-12T01:31:06;7.63;;;3.92;;
66721;SDS011;53633;49.932;10.884;2023-08-12T01:33:39;9.37;;;3.97;;
66721;SDS011;53633;49.932;10.884;2023-08-12T01:36:11;7.47;;;4.13;;
66721;SDS011;53633;49.932;10.884;2023-08-12T01:38:41;7.55;;;4.20;;
66721;SDS011;53633;49.932;10.884;2023-08-12T01:41:11;9.27;;;3.95;;
66721;SDS011;53633;49.932;10.884;2023-08-12T01:43:39;9.85;;;4.00;;
66721;SDS011;53633;49.932;10.884;2023-08-12T01:46:07;6.67;;;3.47;;
66721;SDS011;53633;49.932;10.884;2023-08-12T01:48:34;7.28;;;3.90;;
66721;SDS011;53633;49.932;10.884;2023-08-12T01:51:01;8.90;;;3.80;;
66721;SDS011;53633;49.932;10.884;2023-08-12T01:53:27;8.77;;;4.18;;
66721;SDS011;53633;49.932;10.884;2023-08-12T01:55:54;9.05;;;4.13;;
66721;SDS011;53633;49.932;10.884;2023-08-12T01:58:23;10.10;;;4.40;;
66721;SDS011;53633;49.932;10.884;2023-08-12T02:00:49;8.63;;;4.38;;
66721;SDS011;53633;49.932;10.884;2023-08-12T02:03:16;9.23;;;4.70;;
66721;SDS011;53633;49.932;10.884;2023-08-12T02:05:43;8.48;;;4.25;;
66721;SDS011;53633;49.932;10.884;2023-08-12T02:08:10;10.10;;;4.70;;
66721;SDS011;53633;49.932;10.884;2023-08-12T02:10:37;8.63;;;4.60;;
66721;SDS011;53633;49.932;10.884;2023-08-12T02:13:03;9.73;;;5.13;;
66721;SDS011;53633;49.932;10.884;2023-08-12T02:15:32;7.88;;;4.10;;
66721;SDS011;53633;49.932;10.884;2023-08-12T02:17:58;9.85;;;4.82;;
66721;SDS011;53633;49.932;10.884;2023-08-12T02:20:25;11.73;;;4.93;;
66721;SDS011;53633;49.932;10.884;2023-08-12T02:22:52;10.03;;;4.33;;
66721;SDS011;53633;49.932;10.884;2023-08-12T02:25:19;10.80;;;5.18;;
66721;SDS011;53633;49.932;10.884;2023-08-12T02:27:45;11.55;;;5.30;;
66721;SDS011;53633;49.932;10.884;2023-08-12T02:30:12;8.70;;;4.93;;
66721;SDS011;53633;49.932;10.884;2023-08-12T02:32:40;10.32;;;4.80;;
66721;SDS011;53633;49.932;10.884;2023-08-12T02:35:07;9.50;;;4.40;;
66721;SDS011;53633;49.932;10.884;2023-08-12T02:37:34;9.43;;;4.45;;
66721;SDS011;53633;49.932;10.884;2023-08-12T02:40:01;7.28;;;4.43;;
66721;SDS011;53633;49.932;10.884;2023-08-12T02:42:28;7.32;;;4.35;;
66721;SDS011;53633;49.932;10.884;2023-08-12T02:44:54;9.98;;;5.28;;
66721;SDS011;53633;49.932;10.884;2023-08-12T02:47:21;9.67;;;4.47;;
66721;SDS011;53633;49.932;10.884;2023-08-12T02:49:49;7.85;;;4.55;;
66721;SDS011;53633;49.932;10.884;2023-08-12T02:52:16;8.80;;;4.95;;
66721;SDS011;53633;49.932;10.884;2023-08-12T02:54:43;8.68;;;4.43;;
66721;SDS011;53633;49.932;10.884;2023-08-12T02:57:10;9.82;;;4.90;;
66721;SDS011;53633;49.932;10.884;2023-08-12T02:59:37;8.93;;;4.63;;
66721;SDS011;53633;49.932;10.884;2023-08-12T03:02:03;8.45;;;4.80;;
66721;SDS011;53633;49.932;10.884;2023-08-12T03:04:30;9.18;;;5.03;;
66721;SDS011;53633;49.932;10.884;2023-08-12T03:06:58;10.27;;;5.20;;
66721;SDS011;53633;49.932;10.884;2023-08-12T03:09:25;8.63;;;4.53;;
66721;SDS011;53633;49.932;10.884;2023-08-12T03:11:52;8.97;;;4.83;;
66721;SDS011;53633;49.932;10.884;2023-08-12T03:14:19;10.80;;;4.75;;
66721;SDS011;53633;49.932;10.884;2023-08-12T03:16:45;8.57;;;4.70;;
66721;SDS011;53633;49.932;10.884;2023-08-12T03:19:12;8.55;;;5.00;;
66721;SDS011;53633;49.932;10.884;2023-08-12T03:21:39;10.20;;;5.20;;
66721;SDS011;53633;49.932;10.884;2023-08-12T03:24:07;10.90;;;5.07;;
66721;SDS011;53633;49.932;10.884;2023-08-12T03:26:34;8.45;;;4.63;;
66721;SDS011;53633;49.932;10.884;2023-08-12T03:29:00;7.72;;;4.70;;
66721;SDS011;53633;49.932;10.884;2023-08-12T03:31:27;12.13;;;4.80;;
66721;SDS011;53633;49.932;10.884;2023-08-12T03:33:54;8.80;;;4.55;;
66721;SDS011;53633;49.932;10.884;2023-08-12T03:36:21;9.93;;;4.60;;
66721;SDS011;53633;49.932;10.884;2023-08-12T03:38:47;8.95;;;4.60;;
66721;SDS011;53633;49.932;10.884;2023-08-12T03:41:15;7.47;;;4.03;;
66721;SDS011;53633;49.932;10.884;2023-08-12T03:43:42;8.80;;;4.82;;
66721;SDS011;53633;49.932;10.884;2023-08-12T03:46:09;7.60;;;4.60;;
66721;SDS011;53633;49.932;10.884;2023-08-12T03:48:35;7.70;;;4.43;;
66721;SDS011;53633;49.932;10.884;2023-08-12T03:51:02;10.02;;;4.75;;
66721;SDS011;53633;49.932;10.884;2023-08-12T03:53:29;12.25;;;5.00;;
66721;SDS011;53633;49.932;10.884;2023-08-12T03:55:56;9.00;;;4.65;;
66721;SDS011;53633;49.932;10.884;2023-08-12T03:58:24;9.63;;;4.72;;
66721;SDS011;53633;49.932;10.884;2023-08-12T04:00:50;9.73;;;4.80;;
66721;SDS011;53633;49.932;10.884;2023-08-12T04:03:17;9.95;;;4.28;;
66721;SDS011;53633;49.932;10.884;2023-08-12T04:05:47;8.35;;;4.15;;
66721;SDS011;53633;49.932;10.884;2023-08-12T04:08:14;8.40;;;4.50;;
66721;SDS011;53633;49.932;10.884;2023-08-12T04:10:43;10.57;;;4.18;;
66721;SDS011;53633;49.932;10.884;2023-08-12T04:13:11;8.57;;;4.57;;
66721;SDS011;53633;49.932;10.884;2023-08-12T04:15:39;7.88;;;4.45;;
66721;SDS011;53633;49.932;10.884;2023-08-12T04:18:05;9.27;;;4.43;;
66721;SDS011;53633;49.932;10.884;2023-08-12T04:20:33;9.32;;;4.70;;
66721;SDS011;53633;49.932;10.884;2023-08-12T04:22:59;9.18;;;4.40;;
66721;SDS011;53633;49.932;10.884;2023-08-12T04:25:26;9.17;;;4.60;;
66721;SDS011;53633;49.932;10.884;2023-08-12T04:27:53;7.97;;;4.18;;
66721;SDS011;53633;49.932;10.884;2023-08-12T04:30:20;8.20;;;4.40;;
66721;SDS011;53633;49.932;10.884;2023-08-12T04:32:48;9.40;;;4.25;;
66721;SDS011;53633;49.932;10.884;2023-08-12T04:35:15;7.10;;;4.20;;
66721;SDS011;53633;49.932;10.884;2023-08-12T04:37:42;9.97;;;4.67;;
66721;SDS011;53633;49.932;10.884;2023-08-12T04:40:09;9.32;;;4.70;;
66721;SDS011;53633;49.932;10.884;2023-08-12T04:42:36;8.93;;;4.40;;
66721;SDS011;53633;49.932;10.884;2023-08-12T04:45:03;8.10;;;4.25;;
66721;SDS011;53633;49.932;10.884;2023-08-12T04:47:30;7.50;;;4.00;;
66721;SDS011;53633;49.932;10.884;2023-08-12T04:49:58;7.90;;;4.20;;
66721;SDS011;53633;49.932;10.884;2023-08-12T04:52:25;8.02;;;3.83;;
66721;SDS011;53633;49.932;10.884;2023-08-12T04:54:52;7.95;;;3.65;;
66721;SDS011;53633;49.932;10.884;2023-08-12T04:57:19;11.05;;;4.55;;
66721;SDS011;53633;49.932;10.884;2023-08-12T04:59:46;9.25;;;4.57;;
66721;SDS011;53633;49.932;10.884;2023-08-12T05:02:12;9.40;;;4.20;;
66721;SDS011;53633;49.932;10.884;2023-08-12T05:04:39;8.95;;;4.18;;
66721;SDS011;53633;49.932;10.884;2023-08-12T05:07:08;7.68;;;3.35;;
66721;SDS011;53633;49.932;10.884;2023-08-12T05:09:34;7.32;;;4.10;;
66721;SDS011;53633;49.932;10.884;2023-08-12T05:12:01;7.97;;;4.15;;
66721;SDS011;53633;49.932;10.884;2023-08-12T05:14:28;9.00;;;4.73;;
66721;SDS011;53633;49.932;10.884;2023-08-12T05:16:55;12.73;;;4.50;;
66721;SDS011;53633;49.932;10.884;2023-08-12T05:19:22;8.55;;;4.45;;
66721;SDS011;53633;49.932;10.884;2023-08-12T05:21:48;8.82;;;4.35;;
66721;SDS011;53633;49.932;10.884;2023-08-12T05:24:17;7.97;;;4.70;;
66721;SDS011;53633;49.932;10.884;2023-08-12T05:26:44;9.77;;;4.70;;
66721;SDS011;53633;49.932;10.884;2023-08-12T05:29:11;8.10;;;4.25;;
66721;SDS011;53633;49.932;10.884;2023-08-12T05:31:38;8.80;;;4.38;;
66721;SDS011;53633;49.932;10.884;2023-08-12T05:34:04;10.43;;;4.55;;
66721;SDS011;53633;49.932;10.884;2023-08-12T05:36:31;10.68;;;4.85;;
66721;SDS011;53633;49.932;10.884;2023-08-12T05:38:58;8.10;;;5.10;;
66721;SDS011;53633;49.932;10.884;2023-08-12T05:41:26;10.02;;;4.75;;
66721;SDS011;53633;49.932;10.884;2023-08-12T05:43:53;7.80;;;4.45;;
66721;SDS011;53633;49.932;10.884;2023-08-12T05:46:20;9.52;;;4.70;;
66721;SDS011;53633;49.932;10.884;2023-08-12T05:48:47;7.57;;;4.38;;
66721;SDS011;53633;49.932;10.884;2023-08-12T05:51:14;8.77;;;4.80;;
66721;SDS011;53633;49.932;10.884;2023-08-12T05:53:40;10.77;;;4.90;;
66721;SDS011;53633;49.932;10.884;2023-08-12T05:56:07;8.40;;;4.70;;
66721;SDS011;53633;49.932;10.884;2023-08-12T05:58:35;7.68;;;4.53;;
66721;SDS011;53633;49.932;10.884;2023-08-12T06:01:02;10.40;;;4.60;;
66721;SDS011;53633;49.932;10.884;2023-08-12T06:03:29;8.33;;;4.60;;
66721;SDS011;53633;49.932;10.884;2023-08-12T06:05:56;7.95;;;4.45;;
66721;SDS011;53633;49.932;10.884;2023-08-12T06:08:22;7.63;;;4.38;;
66721;SDS011;53633;49.932;10.884;2023-08-12T06:10:49;11.05;;;3.90;;
66721;SDS011;53633;49.932;10.884;2023-08-12T06:13:16;10.02;;;4.90;;
66721;SDS011;53633;49.932;10.884;2023-08-12T06:15:44;8.30;;;4.03;;
66721;SDS011;53633;49.932;10.884;2023-08-12T06:18:10;7.63;;;4.57;;
66721;SDS011;53633;49.932;10.884;2023-08-12T06:20:37;8.93;;;4.20;;
66721;SDS011;53633;49.932;10.884;2023-08-12T06:23:04;7.72;;;5.10;;
66721;SDS011;53633;49.932;10.884;2023-08-12T06:25:31;8.60;;;4.72;;
66721;SDS011;53633;49.932;10.884;2023-08-12T06:27:58;8.23;;;4.53;;
66721;SDS011;53633;49.932;10.884;2023-08-12T06:30:38;7.78;;;4.55;;
66721;SDS011;53633;49.932;10.884;2023-08-12T06:33:06;8.25;;;4.10;;
66721;SDS011;53633;49.932;10.884;2023-08-12T06:35:33;8.13;;;4.45;;
66721;SDS011;53633;49.932;10.884;2023-08-12T06:38:00;8.05;;;4.55;;
66721;SDS011;53633;49.932;10.884;2023-08-12T06:40:26;8.77;;;4.37;;
66721;SDS011;53633;49.932;10.884;2023-08-12T06:42:53;9.57;;;4.90;;
66721;SDS011;53633;49.932;10.884;2023-08-12T06:45:20;9.18;;;4.32;;
66721;SDS011;53633;49.932;10.884;2023-08-12T06:47:47;7.85;;;4.65;;
66721;SDS011;53633;49.932;10.884;2023-08-12T06:50:15;6.43;;;3.95;;
66721;SDS011;53633;49.932;10.884;2023-08-12T06:52:42;8.80;;;4.43;;
66721;SDS011;53633;49.932;10.884;2023-08-12T06:55:08;9.57;;;4.90;;
66721;SDS011;53633;49.932;10.884;2023-08-12T06:57:35;8.57;;;4.20;;
66721;SDS011;53633;49.932;10.884;2023-08-12T07:00:02;7.80;;;4.00;;
66721;SDS011;53633;49.932;10.884;2023-08-12T07:02:29;11.27;;;4.30;;
66721;SDS011;53633;49.932;10.884;2023-08-12T07:04:56;8.60;;;5.00;;
66721;SDS011;53633;49.932;10.884;2023-08-12T07:07:24;12.75;;;4.35;;
66721;SDS011;53633;49.932;10.884;2023-08-12T07:09:51;10.07;;;4.55;;
66721;SDS011;53633;49.932;10.884;2023-08-12T07:12:17;7.80;;;4.30;;
66721;SDS011;53633;49.932;10.884;2023-08-12T07:14:44;9.15;;;4.57;;
66721;SDS011;53633;49.932;10.884;2023-08-12T07:17:11;10.97;;;4.83;;
66721;SDS011;53633;49.932;10.884;2023-08-12T07:19:37;6.95;;;4.28;;
66721;SDS011;53633;49.932;10.884;2023-08-12T07:22:04;9.25;;;4.28;;
66721;SDS011;53633;49.932;10.884;2023-08-12T07:24:32;7.20;;;4.32;;
66721;SDS011;53633;49.932;10.884;2023-08-12T07:26:59;8.60;;;5.07;;
66721;SDS011;53633;49.932;10.884;2023-08-12T07:29:26;11.17;;;4.90;;
66721;SDS011;53633;49.932;10.884;2023-08-12T07:31:53;7.75;;;3.60;;
66721;SDS011;53633;49.932;10.884;2023-08-12T07:34:20;8.80;;;4.25;;
66721;SDS011;53633;49.932;10.884;2023-08-12T07:36:46;6.95;;;4.07;;
66721;SDS011;53633;49.932;10.884;2023-08-12T07:39:13;8.65;;;4.18;;
66721;SDS011;53633;49.932;10.884;2023-08-12T07:41:41;9.97;;;4.27;;
66721;SDS011;53633;49.932;10.884;2023-08-12T07:44:08;7.55;;;3.80;;
66721;SDS011;53633;49.932;10.884;2023-08-12T07:46:35;9.32;;;3.50;;
66721;SDS011;53633;49.932;10.884;2023-08-12T07:49:02;7.10;;;3.38;;
66721;SDS011;53633;49.932;10.884;2023-08-12T07:51:29;8.88;;;3.60;;
66721;SDS011;53633;49.932;10.884;2023-08-12T07:53:55;8.60;;;4.30;;
66721;SDS011;53633;49.932;10.884;2023-08-12T07:56:22;7.43;;;3.88;;
66721;SDS011;53633;49.932;10.884;2023-08-12T07:58:50;14.35;;;3.70;;
66721;SDS011;53633;49.932;10.884;2023-08-12T08:01:17;7.90;;;3.83;;
66721;SDS011;53633;49.932;10.884;2023-08-12T08:03:44;7.50;;;3.70;;
66721;SDS011;53633;49.932;10.884;2023-08-12T08:06:10;6.53;;;4.03;;
66721;SDS011;53633;49.932;10.884;2023-08-12T08:08:37;10.05;;;3.70;;
66721;SDS011;53633;49.932;10.884;2023-08-12T08:11:04;7.68;;;4.03;;
66721;SDS011;53633;49.932;10.884;2023-08-12T08:13:30;8.50;;;3.88;;
66721;SDS011;53633;49.932;10.884;2023-08-12T08:15:59;10.85;;;3.97;;
66721;SDS011;53633;49.932;10.884;2023-08-12T08:18:25;8.10;;;3.87;;
66721;SDS011;53633;49.932;10.884;2023-08-12T08:20:52;8.82;;;4.30;;
66721;SDS011;53633;49.932;10.884;2023-08-12T08:23:19;6.70;;;3.38;;
66721;SDS011;53633;49.932;10.884;2023-08-12T08:25:46;6.05;;;3.30;;
66721;SDS011;53633;49.932;10.884;2023-08-12T08:28:12;6.55;;;3.38;;
66721;SDS011;53633;49.932;10.884;2023-08-12T08:30:39;6.07;;;3.20;;
66721;SDS011;53633;49.932;10.884;2023-08-12T08:33:07;7.72;;;3.40;;
66721;SDS011;53633;49.932;10.884;2023-08-12T08:35:34;5.85;;;2.70;;
66721;SDS011;53633;49.932;10.884;2023-08-12T08:38:01;5.65;;;3.05;;
66721;SDS011;53633;49.932;10.884;2023-08-12T08:40:28;4.95;;;2.50;;
66721;SDS011;53633;49.932;10.884;2023-08-12T08:42:55;7.23;;;2.20;;
66721;SDS011;53633;49.932;10.884;2023-08-12T08:45:28;6.32;;;2.58;;
66721;SDS011;53633;49.932;10.884;2023-08-12T08:47:58;6.93;;;2.60;;
66721;SDS011;53633;49.932;10.884;2023-08-12T08:50:28;5.40;;;2.97;;
66721;SDS011;53633;49.932;10.884;2023-08-12T08:52:56;6.03;;;2.97;;
66721;SDS011;53633;49.932;10.884;2023-08-12T08:55:23;5.70;;;2.43;;
66721;SDS011;53633;49.932;10.884;2023-08-12T08:57:50;6.70;;;2.50;;
66721;SDS011;53633;49.932;10.884;2023-08-12T09:00:18;6.57;;;2.67;;
66721;SDS011;53633;49.932;10.884;2023-08-12T09:02:46;5.82;;;3.10;;
66721;SDS011;53633;49.932;10.884;2023-08-12T09:05:14;5.65;;;2.58;;
66721;SDS011;53633;49.932;10.884;2023-08-12T09:07:44;4.93;;;2.43;;
66721;SDS011;53633;49.932;10.884;2023-08-12T09:10:12;6.90;;;3.20;;
66721;SDS011;53633;49.932;10.884;2023-08-12T09:12:41;5.78;;;2.40;;
66721;SDS011;53633;49.932;10.884;2023-08-12T09:15:09;6.85;;;2.90;;
66721;SDS011;53633;49.932;10.884;2023-08-12T09:17:36;6.03;;;3.00;;
66721;SDS011;53633;49.932;10.884;2023-08-12T09:20:03;6.87;;;3.07;;
66721;SDS011;53633;49.932;10.884;2023-08-12T09:22:31;5.68;;;3.10;;
66721;SDS011;53633;49.932;10.884;2023-08-12T09:24:59;5.68;;;2.90;;
66721;SDS011;53633;49.932;10.884;2023-08-12T09:27:27;5.78;;;2.90;;
66721;SDS011;53633;49.932;10.884;2023-08-12T09:29:56;6.15;;;2.90;;
66721;SDS011;53633;49.932;10.884;2023-08-12T09:32:24;6.53;;;2.93;;
66721;SDS011;53633;49.932;10.884;2023-08-12T09:34:51;5.45;;;2.90;;
66721;SDS011;53633;49.932;10.884;2023-08-12T09:37:19;5.45;;;3.28;;
66721;SDS011;53633;49.932;10.884;2023-08-12T09:39:47;6.20;;;3.03;;
66721;SDS011;53633;49.932;10.884;2023-08-12T09:42:16;5.80;;;3.15;;
66721;SDS011;53633;49.932;10.884;2023-08-12T09:44:43;5.30;;;2.80;;
66721;SDS011;53633;49.932;10.884;2023-08-12T09:47:11;5.60;;;3.20;;
66721;SDS011;53633;49.932;10.884;2023-08-12T09:49:38;7.20;;;3.25;;
66721;SDS011;53633;49.932;10.884;2023-08-12T09:52:06;5.22;;;3.20;;
66721;SDS011;53633;49.932;10.884;2023-08-12T09:54:34;5.88;;;3.47;;
66721;SDS011;53633;49.932;10.884;2023-08-12T09:57:01;5.40;;;3.33;;
66721;SDS011;53633;49.932;10.884;2023-08-12T09:59:31;5.70;;;3.42;;
66721;SDS011;53633;49.932;10.884;2023-08-12T10:01:58;7.82;;;3.03;;
66721;SDS011;53633;49.932;10.884;2023-08-12T10:04:26;6.25;;;3.47;;
66721;SDS011;53633;49.932;10.884;2023-08-12T10:06:59;5.53;;;3.30;;
66721;SDS011;53633;49.932;10.884;2023-08-12T10:09:27;6.47;;;3.40;;
66721;SDS011;53633;49.932;10.884;2023-08-12T10:11:54;5.43;;;3.40;;
66721;SDS011;53633;49.932;10.884;2023-08-12T10:14:21;6.28;;;3.55;;
66721;SDS011;53633;49.932;10.884;2023-08-12T10:16:50;6.35;;;3.55;;
66721;SDS011;53633;49.932;10.884;2023-08-12T10:19:30;5.85;;;3.60;;
66721;SDS011;53633;49.932;10.884;2023-08-12T10:21:58;7.37;;;3.57;;
66721;SDS011;53633;49.932;10.884;2023-08-12T10:24:26;6.63;;;3.58;;
66721;SDS011;53633;49.932;10.884;2023-08-12T10:26:53;6.82;;;3.63;;
66721;SDS011;53633;49.932;10.884;2023-08-12T10:29:20;6.60;;;3.17;;
66721;SDS011;53633;49.932;10.884;2023-08-12T10:31:50;5.95;;;3.65;;
66721;SDS011;53633;49.932;10.884;2023-08-12T10:34:18;7.60;;;3.50;;
66721;SDS011;53633;49.932;10.884;2023-08-12T10:36:46;5.63;;;3.10;;
66721;SDS011;53633;49.932;10.884;2023-08-12T10:39:27;6.15;;;3.13;;
66721;SDS011;53633;49.932;10.884;2023-08-12T10:41:54;11.98;;;3.50;;
66721;SDS011;53633;49.932;10.884;2023-08-12T10:44:22;6.57;;;3.67;;
66721;SDS011;53633;49.932;10.884;2023-08-12T10:46:54;6.57;;;3.70;;
66721;SDS011;53633;49.932;10.884;2023-08-12T10:49:21;7.18;;;3.70;;
66721;SDS011;53633;49.932;10.884;2023-08-12T10:51:49;6.05;;;3.80;;
66721;SDS011;53633;49.932;10.884;2023-08-12T10:54:17;10.98;;;4.03;;
66721;SDS011;53633;49.932;10.884;2023-08-12T10:57:06;6.32;;;3.88;;
66721;SDS011;53633;49.932;10.884;2023-08-12T10:59:50;6.87;;;4.00;;
66721;SDS011;53633;49.932;10.884;2023-08-12T11:02:20;6.72;;;4.00;;
66721;SDS011;53633;49.932;10.884;2023-08-12T11:04:48;7.45;;;3.63;;
66721;SDS011;53633;49.932;10.884;2023-08-12T11:07:16;6.25;;;3.80;;
66721;SDS011;53633;49.932;10.884;2023-08-12T11:09:45;5.53;;;3.53;;
66721;SDS011;53633;49.932;10.884;2023-08-12T11:12:16;6.57;;;3.83;;
66721;SDS011;53633;49.932;10.884;2023-08-12T11:14:47;5.72;;;3.55;;
66721;SDS011;53633;49.932;10.884;2023-08-12T11:17:14;6.28;;;3.75;;
66721;SDS011;53633;49.932;10.884;2023-08-12T11:19:43;8.48;;;3.88;;
66721;SDS011;53633;49.932;10.884;2023-08-12T11:22:10;6.50;;;3.85;;
66721;SDS011;53633;49.932;10.884;2023-08-12T11:24:39;7.30;;;3.60;;
66721;SDS011;53633;49.932;10.884;2023-08-12T11:27:09;6.03;;;4.07;;
66721;SDS011;53633;49.932;10.884;2023-08-12T11:29:37;8.60;;;4.47;;
66721;SDS011;53633;49.932;10.884;2023-08-12T11:32:04;8.13;;;4.30;;
66721;SDS011;53633;49.932;10.884;2023-08-12T11:34:32;13.20;;;9.38;;
66721;SDS011;53633;49.932;10.884;2023-08-12T11:37:00;14.37;;;10.57;;
66721;SDS011;53633;49.932;10.884;2023-08-12T11:39:32;11.15;;;6.30;;
66721;SDS011;53633;49.932;10.884;2023-08-12T11:41:58;9.32;;;4.57;;
66721;SDS011;53633;49.932;10.884;2023-08-12T11:44:25;12.43;;;4.57;;
66721;SDS011;53633;49.932;10.884;2023-08-12T11:46:52;11.20;;;5.10;;
66721;SDS011;53633;49.932;10.884;2023-08-12T11:49:19;7.53;;;4.67;;
66721;SDS011;53633;49.932;10.884;2023-08-12T11:51:46;6.32;;;4.20;;
66721;SDS011;53633;49.932;10.884;2023-08-12T11:54:15;7.15;;;4.15;;
66721;SDS011;53633;49.932;10.884;2023-08-12T11:56:42;7.43;;;4.55;;
66721;SDS011;53633;49.932;10.884;2023-08-12T11:59:09;7.70;;;3.97;;
66721;SDS011;53633;49.932;10.884;2023-08-12T12:01:36;6.47;;;4.20;;
66721;SDS011;53633;49.932;10.884;2023-08-12T12:04:03;7.40;;;4.18;;
66721;SDS011;53633;49.932;10.884;2023-08-12T12:06:31;9.13;;;4.20;;
66721;SDS011;53633;49.932;10.884;2023-08-12T12:09:01;8.63;;;4.28;;
66721;SDS011;53633;49.932;10.884;2023-08-12T12:11:31;6.38;;;4.07;;
66721;SDS011;53633;49.932;10.884;2023-08-12T12:14:00;8.57;;;4.20;;
66721;SDS011;53633;49.932;10.884;2023-08-12T12:16:36;7.63;;;5.35;;
66721;SDS011;53633;49.932;10.884;2023-08-12T12:19:04;8.15;;;5.10;;
66721;SDS011;53633;49.932;10.884;2023-08-12T12:21:30;7.00;;;4.50;;
66721;SDS011;53633;49.932;10.884;2023-08-12T12:24:04;9.90;;;5.10;;
66721;SDS011;53633;49.932;10.884;2023-08-12T12:26:33;11.13;;;3.90;;
66721;SDS011;53633;49.932;10.884;2023-08-12T12:29:00;10.55;;;4.22;;
66721;SDS011;53633;49.932;10.884;2023-08-12T12:31:27;7.55;;;4.38;;
66721;SDS011;53633;49.932;10.884;2023-08-12T12:33:54;7.07;;;4.05;;
66721;SDS011;53633;49.932;10.884;2023-08-12T12:36:21;8.07;;;3.80;;
66721;SDS011;53633;49.932;10.884;2023-08-12T12:38:47;6.30;;;4.23;;
66721;SDS011;53633;49.932;10.884;2023-08-12T12:41:14;8.63;;;4.07;;
66721;SDS011;53633;49.932;10.884;2023-08-12T12:43:42;6.60;;;3.47;;
66721;SDS011;53633;49.932;10.884;2023-08-12T12:46:09;6.68;;;3.80;;
66721;SDS011;53633;49.932;10.884;2023-08-12T12:48:36;6.70;;;4.22;;
66721;SDS011;53633;49.932;10.884;2023-08-12T12:51:03;6.77;;;4.50;;
66721;SDS011;53633;49.932;10.884;2023-08-12T12:53:30;8.18;;;4.10;;
66721;SDS011;53633;49.932;10.884;2023-08-12T12:55:57;7.32;;;4.20;;
66721;SDS011;53633;49.932;10.884;2023-08-12T12:58:24;7.35;;;4.35;;
66721;SDS011;53633;49.932;10.884;2023-08-12T13:00:52;7.70;;;3.97;;
66721;SDS011;53633;49.932;10.884;2023-08-12T13:03:19;6.70;;;4.20;;
66721;SDS011;53633;49.932;10.884;2023-08-12T13:05:46;6.22;;;4.20;;
66721;SDS011;53633;49.932;10.884;2023-08-12T13:08:26;6.85;;;3.97;;
66721;SDS011;53633;49.932;10.884;2023-08-12T13:10:54;7.97;;;4.53;;
66721;SDS011;53633;49.932;10.884;2023-08-12T13:13:21;8.73;;;3.90;;
66721;SDS011;53633;49.932;10.884;2023-08-12T13:15:47;9.13;;;3.60;;
66721;SDS011;53633;49.932;10.884;2023-08-12T13:18:15;6.70;;;3.97;;
66721;SDS011;53633;49.932;10.884;2023-08-12T13:20:42;6.88;;;4.15;;
66721;SDS011;53633;49.932;10.884;2023-08-12T13:23:09;6.47;;;3.83;;
66721;SDS011;53633;49.932;10.884;2023-08-12T13:25:36;10.70;;;2.03;;
66721;SDS011;53633;49.932;10.884;2023-08-12T13:28:03;8.53;;;1.83;;
66721;SDS011;53633;49.932;10.884;2023-08-12T13:30:30;4.50;;;1.20;;
66721;SDS011;53633;49.932;10.884;2023-08-12T13:32:57;9.30;;;1.10;;
66721;SDS011;53633;49.932;10.884;2023-08-12T13:35:28;2.28;;;0.75;;
66721;SDS011;53633;49.932;10.884;2023-08-12T13:37:55;4.78;;;1.00;;
66721;SDS011;53633;49.932;10.884;2023-08-12T13:40:22;1.83;;;0.50;;
66721;SDS011;53633;49.932;10.884;2023-08-12T13:42:48;2.75;;;0.70;;
66721;SDS011;53633;49.932;10.884;2023-08-12T13:45:15;2.65;;;0.50;;
66721;SDS011;53633;49.932;10.884;2023-08-12T13:47:42;6.15;;;0.63;;
66721;SDS011;53633;49.932;10.884;2023-08-12T13:50:09;1.80;;;0.50;;
66721;SDS011;53633;49.932;10.884;2023-08-12T13:52:37;3.03;;;0.80;;
66721;SDS011;53633;49.932;10.884;2023-08-12T13:55:04;9.80;;;1.95;;
66721;SDS011;53633;49.932;10.884;2023-08-12T13:57:32;9.68;;;1.50;;
66721;SDS011;53633;49.932;10.884;2023-08-12T13:59:58;7.53;;;1.20;;
66721;SDS011;53633;49.932;10.884;2023-08-12T14:02:25;9.65;;;1.17;;
66721;SDS011;53633;49.932;10.884;2023-08-12T14:04:52;9.70;;;1.40;;
66721;SDS011;53633;49.932;10.884;2023-08-12T14:07:19;5.70;;;0.85;;
66721;SDS011;53633;49.932;10.884;2023-08-12T14:09:47;8.15;;;0.90;;
66721;SDS011;53633;49.932;10.884;2023-08-12T14:12:14;5.80;;;0.95;;
66721;SDS011;53633;49.932;10.884;2023-08-12T14:14:41;3.97;;;0.85;;
66721;SDS011;53633;49.932;10.884;2023-08-12T14:17:08;3.50;;;0.63;;
66721;SDS011;53633;49.932;10.884;2023-08-12T14:19:34;2.20;;;0.47;;
66721;SDS011;53633;49.932;10.884;2023-08-12T14:22:01;5.68;;;0.95;;
66721;SDS011;53633;49.932;10.884;2023-08-12T14:24:28;3.53;;;0.75;;
66721;SDS011;53633;49.932;10.884;2023-08-12T14:26:56;4.63;;;0.70;;
66721;SDS011;53633;49.932;10.884;2023-08-12T14:29:23;3.07;;;0.97;;
66721;SDS011;53633;49.932;10.884;2023-08-12T14:31:50;3.05;;;0.57;;
66721;SDS011;53633;49.932;10.884;2023-08-12T14:34:17;4.53;;;0.80;;
66721;SDS011;53633;49.932;10.884;2023-08-12T14:36:44;3.90;;;0.50;;